sensor_id;sensor_type;location;lat;lon;timestamp;P1;durP1;ratioP1;P2;durP2;ratioP2
10582;SDS011;33679;51.218;6.786;2023-02-21T00:02:10;18.97;;;10.00;;
10582;SDS011;33679;51.218;6.786;2023-02-21T00:05:04;16.53;;;10.10;;
10582;SDS011;33679;51.218;6.786;2023-02-21T00:07:55;19.50;;;11.13;;
10582;SDS011;33679;51.218;6.786;2023-02-21T00:10:45;15.87;;;9.70;;
10582;SDS011;33679;51.218;6.786;2023-02-21T00:13:41;19.03;;;10.50;;
10582;SDS011;33679;51.218;6.786;2023-02-21T00:16:32;18.40;;;9.50;;
10582;SDS011;33679;51.218;6.786;2023-02-21T00:19:22;14.93;;;9.53;;
10582;SDS011;33679;51.218;6.786;2023-02-21T00:22:11;15.60;;;9.73;;
10582;SDS011;33679;51.218;6.786;2023-02-21T00:25:01;17.53;;;10.77;;
10582;SDS011;33679;51.218;6.786;2023-02-21T00:27:53;18.73;;;10.60;;
10582;SDS011;33679;51.218;6.786;2023-02-21T00:30:45;19.30;;;11.40;;
10582;SDS011;33679;51.218;6.786;2023-02-21T00:33:35;20.17;;;10.57;;
10582;SDS011;33679;51.218;6.786;2023-02-21T00:36:27;20.30;;;11.60;;
10582;SDS011;33679;51.218;6.786;2023-02-21T00:39:25;19.20;;;10.63;;
10582;SDS011;33679;51.218;6.786;2023-02-21T00:42:15;19.90;;;10.33;;
10582;SDS011;33679;51.218;6.786;2023-02-21T00:45:05;23.77;;;12.43;;
10582;SDS011;33679;51.218;6.786;2023-02-21T00:47:56;25.67;;;12.90;;
10582;SDS011;33679;51.218;6.786;2023-02-21T00:50:46;22.83;;;12.93;;
10582;SDS011;33679;51.218;6.786;2023-02-21T00:53:39;19.13;;;11.43;;
10582;SDS011;33679;51.218;6.786;2023-02-21T00:56:29;23.13;;;12.87;;
10582;SDS011;33679;51.218;6.786;2023-02-21T00:59:18;23.00;;;12.77;;
10582;SDS011;33679;51.218;6.786;2023-02-21T01:02:08;28.77;;;13.50;;
10582;SDS011;33679;51.218;6.786;2023-02-21T01:05:01;25.07;;;13.73;;
10582;SDS011;33679;51.218;6.786;2023-02-21T01:07:51;25.07;;;13.93;;
10582;SDS011;33679;51.218;6.786;2023-02-21T01:10:44;22.30;;;12.20;;
10582;SDS011;33679;51.218;6.786;2023-02-21T01:13:37;24.70;;;13.40;;
10582;SDS011;33679;51.218;6.786;2023-02-21T01:16:32;22.43;;;12.10;;
10582;SDS011;33679;51.218;6.786;2023-02-21T01:19:25;24.83;;;13.53;;
10582;SDS011;33679;51.218;6.786;2023-02-21T01:22:17;30.80;;;14.50;;
10582;SDS011;33679;51.218;6.786;2023-02-21T01:25:08;30.87;;;14.87;;
10582;SDS011;33679;51.218;6.786;2023-02-21T01:28:03;23.17;;;13.13;;
10582;SDS011;33679;51.218;6.786;2023-02-21T01:30:55;25.40;;;12.43;;
10582;SDS011;33679;51.218;6.786;2023-02-21T01:33:46;25.80;;;15.00;;
10582;SDS011;33679;51.218;6.786;2023-02-21T01:36:39;30.87;;;15.87;;
10582;SDS011;33679;51.218;6.786;2023-02-21T01:39:34;27.67;;;14.03;;
10582;SDS011;33679;51.218;6.786;2023-02-21T01:42:24;28.57;;;14.20;;
10582;SDS011;33679;51.218;6.786;2023-02-21T01:48:35;34.73;;;16.37;;
10582;SDS011;33679;51.218;6.786;2023-02-21T01:51:27;35.73;;;16.30;;
10582;SDS011;33679;51.218;6.786;2023-02-21T01:54:22;31.87;;;15.47;;
10582;SDS011;33679;51.218;6.786;2023-02-21T01:57:16;29.13;;;15.77;;
10582;SDS011;33679;51.218;6.786;2023-02-21T02:00:10;30.13;;;15.90;;
10582;SDS011;33679;51.218;6.786;2023-02-21T02:03:05;31.10;;;15.70;;
10582;SDS011;33679;51.218;6.786;2023-02-21T02:05:58;34.47;;;15.77;;
10582;SDS011;33679;51.218;6.786;2023-02-21T02:08:53;30.80;;;15.03;;
10582;SDS011;33679;51.218;6.786;2023-02-21T02:11:53;35.03;;;16.00;;
10582;SDS011;33679;51.218;6.786;2023-02-21T02:18:03;27.27;;;14.23;;
10582;SDS011;33679;51.218;6.786;2023-02-21T02:36:26;30.10;;;14.50;;
10582;SDS011;33679;51.218;6.786;2023-02-21T02:39:10;30.67;;;16.37;;
10582;SDS011;33679;51.218;6.786;2023-02-21T02:41:54;37.43;;;16.13;;
10582;SDS011;33679;51.218;6.786;2023-02-21T02:44:37;31.00;;;14.30;;
10582;SDS011;33679;51.218;6.786;2023-02-21T02:47:17;30.47;;;15.20;;
10582;SDS011;33679;51.218;6.786;2023-02-21T02:49:54;36.40;;;17.33;;
10582;SDS011;33679;51.218;6.786;2023-02-21T02:52:31;35.57;;;16.33;;
10582;SDS011;33679;51.218;6.786;2023-02-21T02:55:20;42.47;;;19.10;;
10582;SDS011;33679;51.218;6.786;2023-02-21T02:58:27;35.23;;;15.93;;
10582;SDS011;33679;51.218;6.786;2023-02-21T03:01:08;38.33;;;18.63;;
10582;SDS011;33679;51.218;6.786;2023-02-21T03:04:09;37.20;;;17.03;;
10582;SDS011;33679;51.218;6.786;2023-02-21T03:06:58;33.87;;;17.20;;
10582;SDS011;33679;51.218;6.786;2023-02-21T03:09:51;31.93;;;15.47;;
10582;SDS011;33679;51.218;6.786;2023-02-21T03:12:36;30.73;;;15.97;;
10582;SDS011;33679;51.218;6.786;2023-02-21T03:15:17;35.90;;;16.43;;
10582;SDS011;33679;51.218;6.786;2023-02-21T03:17:52;30.60;;;16.70;;
10582;SDS011;33679;51.218;6.786;2023-02-21T03:20:32;37.37;;;17.70;;
10582;SDS011;33679;51.218;6.786;2023-02-21T03:23:06;33.80;;;15.97;;
10582;SDS011;33679;51.218;6.786;2023-02-21T03:25:43;32.30;;;14.83;;
10582;SDS011;33679;51.218;6.786;2023-02-21T03:28:19;30.40;;;15.60;;
10582;SDS011;33679;51.218;6.786;2023-02-21T03:30:54;27.63;;;14.70;;
10582;SDS011;33679;51.218;6.786;2023-02-21T03:33:28;32.23;;;17.00;;
10582;SDS011;33679;51.218;6.786;2023-02-21T03:36:02;27.60;;;15.83;;
10582;SDS011;33679;51.218;6.786;2023-02-21T03:38:37;26.63;;;13.87;;
10582;SDS011;33679;51.218;6.786;2023-02-21T03:41:12;29.63;;;16.57;;
10582;SDS011;33679;51.218;6.786;2023-02-21T03:43:46;26.90;;;15.90;;
10582;SDS011;33679;51.218;6.786;2023-02-21T03:46:20;29.03;;;15.93;;
10582;SDS011;33679;51.218;6.786;2023-02-21T03:48:55;31.43;;;15.53;;
10582;SDS011;33679;51.218;6.786;2023-02-21T03:51:32;26.17;;;14.17;;
10582;SDS011;33679;51.218;6.786;2023-02-21T03:54:07;26.50;;;15.60;;
10582;SDS011;33679;51.218;6.786;2023-02-21T03:56:46;25.23;;;13.50;;
10582;SDS011;33679;51.218;6.786;2023-02-21T03:59:25;24.93;;;13.07;;
10582;SDS011;33679;51.218;6.786;2023-02-21T04:01:58;31.27;;;15.50;;
10582;SDS011;33679;51.218;6.786;2023-02-21T04:04:34;25.77;;;14.67;;
10582;SDS011;33679;51.218;6.786;2023-02-21T04:07:12;28.03;;;15.20;;
10582;SDS011;33679;51.218;6.786;2023-02-21T04:09:46;34.27;;;16.10;;
10582;SDS011;33679;51.218;6.786;2023-02-21T04:12:26;28.93;;;14.47;;
10582;SDS011;33679;51.218;6.786;2023-02-21T04:14:58;29.20;;;15.53;;
10582;SDS011;33679;51.218;6.786;2023-02-21T04:17:33;25.53;;;14.33;;
10582;SDS011;33679;51.218;6.786;2023-02-21T04:20:07;28.93;;;15.27;;
10582;SDS011;33679;51.218;6.786;2023-02-21T04:22:46;30.30;;;15.47;;
10582;SDS011;33679;51.218;6.786;2023-02-21T04:25:19;27.60;;;14.40;;
10582;SDS011;33679;51.218;6.786;2023-02-21T04:28:00;23.10;;;13.83;;
10582;SDS011;33679;51.218;6.786;2023-02-21T04:30:33;25.87;;;13.77;;
10582;SDS011;33679;51.218;6.786;2023-02-21T04:33:05;28.63;;;14.53;;
10582;SDS011;33679;51.218;6.786;2023-02-21T04:35:38;29.73;;;15.07;;
10582;SDS011;33679;51.218;6.786;2023-02-21T04:38:19;28.93;;;15.50;;
10582;SDS011;33679;51.218;6.786;2023-02-21T04:40:53;26.87;;;13.37;;
10582;SDS011;33679;51.218;6.786;2023-02-21T04:43:27;32.60;;;16.17;;
10582;SDS011;33679;51.218;6.786;2023-02-21T04:45:59;27.27;;;13.73;;
10582;SDS011;33679;51.218;6.786;2023-02-21T04:48:35;27.73;;;14.77;;
10582;SDS011;33679;51.218;6.786;2023-02-21T04:51:07;27.17;;;14.40;;
10582;SDS011;33679;51.218;6.786;2023-02-21T04:53:40;31.27;;;15.27;;
10582;SDS011;33679;51.218;6.786;2023-02-21T04:56:13;25.27;;;13.37;;
10582;SDS011;33679;51.218;6.786;2023-02-21T04:58:50;31.20;;;14.70;;
10582;SDS011;33679;51.218;6.786;2023-02-21T05:01:25;27.70;;;14.33;;
10582;SDS011;33679;51.218;6.786;2023-02-21T05:04:00;34.37;;;15.50;;
10582;SDS011;33679;51.218;6.786;2023-02-21T05:06:33;27.93;;;14.07;;
10582;SDS011;33679;51.218;6.786;2023-02-21T05:09:05;25.13;;;14.27;;
10582;SDS011;33679;51.218;6.786;2023-02-21T05:11:38;33.37;;;15.93;;
10582;SDS011;33679;51.218;6.786;2023-02-21T05:14:12;29.83;;;14.37;;
10582;SDS011;33679;51.218;6.786;2023-02-21T05:16:44;33.83;;;16.33;;
10582;SDS011;33679;51.218;6.786;2023-02-21T05:19:18;28.17;;;13.97;;
10582;SDS011;33679;51.218;6.786;2023-02-21T05:21:57;33.37;;;15.23;;
10582;SDS011;33679;51.218;6.786;2023-02-21T05:24:31;37.43;;;18.13;;
10582;SDS011;33679;51.218;6.786;2023-02-21T05:27:07;32.20;;;16.90;;
10582;SDS011;33679;51.218;6.786;2023-02-21T05:29:46;30.63;;;15.90;;
10582;SDS011;33679;51.218;6.786;2023-02-21T05:32:20;29.70;;;15.30;;
10582;SDS011;33679;51.218;6.786;2023-02-21T05:34:53;33.80;;;16.40;;
10582;SDS011;33679;51.218;6.786;2023-02-21T05:37:25;36.40;;;18.30;;
10582;SDS011;33679;51.218;6.786;2023-02-21T05:39:59;33.23;;;18.00;;
10582;SDS011;33679;51.218;6.786;2023-02-21T05:42:32;32.97;;;15.50;;
10582;SDS011;33679;51.218;6.786;2023-02-21T05:45:06;35.17;;;16.63;;
10582;SDS011;33679;51.218;6.786;2023-02-21T05:47:39;34.50;;;15.67;;
10582;SDS011;33679;51.218;6.786;2023-02-21T05:50:11;33.43;;;16.57;;
10582;SDS011;33679;51.218;6.786;2023-02-21T05:52:45;30.13;;;15.63;;
10582;SDS011;33679;51.218;6.786;2023-02-21T05:55:20;38.17;;;17.47;;
10582;SDS011;33679;51.218;6.786;2023-02-21T05:57:52;35.87;;;15.87;;
10582;SDS011;33679;51.218;6.786;2023-02-21T06:00:28;31.60;;;15.77;;
10582;SDS011;33679;51.218;6.786;2023-02-21T06:03:01;37.20;;;16.27;;
10582;SDS011;33679;51.218;6.786;2023-02-21T06:05:34;35.00;;;15.80;;
10582;SDS011;33679;51.218;6.786;2023-02-21T06:08:07;29.83;;;14.93;;
10582;SDS011;33679;51.218;6.786;2023-02-21T06:10:39;39.07;;;19.10;;
10582;SDS011;33679;51.218;6.786;2023-02-21T06:13:12;33.73;;;15.03;;
10582;SDS011;33679;51.218;6.786;2023-02-21T06:15:46;32.40;;;15.50;;
10582;SDS011;33679;51.218;6.786;2023-02-21T06:18:18;36.07;;;18.20;;
10582;SDS011;33679;51.218;6.786;2023-02-21T06:20:51;33.50;;;16.10;;
10582;SDS011;33679;51.218;6.786;2023-02-21T06:23:24;38.57;;;18.20;;
10582;SDS011;33679;51.218;6.786;2023-02-21T06:25:56;39.10;;;16.73;;
10582;SDS011;33679;51.218;6.786;2023-02-21T06:28:28;37.07;;;17.27;;
10582;SDS011;33679;51.218;6.786;2023-02-21T06:31:03;36.90;;;16.07;;
10582;SDS011;33679;51.218;6.786;2023-02-21T06:33:39;36.93;;;17.10;;
10582;SDS011;33679;51.218;6.786;2023-02-21T06:36:13;31.57;;;15.00;;
10582;SDS011;33679;51.218;6.786;2023-02-21T06:38:48;38.03;;;16.90;;
10582;SDS011;33679;51.218;6.786;2023-02-21T06:41:22;35.37;;;17.00;;
10582;SDS011;33679;51.218;6.786;2023-02-21T06:43:57;36.70;;;15.90;;
10582;SDS011;33679;51.218;6.786;2023-02-21T06:46:33;38.67;;;17.00;;
10582;SDS011;33679;51.218;6.786;2023-02-21T06:49:09;37.47;;;16.13;;
10582;SDS011;33679;51.218;6.786;2023-02-21T06:51:42;31.53;;;14.50;;
10582;SDS011;33679;51.218;6.786;2023-02-21T06:54:14;28.70;;;13.80;;
10582;SDS011;33679;51.218;6.786;2023-02-21T06:56:47;40.90;;;17.37;;
10582;SDS011;33679;51.218;6.786;2023-02-21T06:59:20;31.47;;;14.73;;
10582;SDS011;33679;51.218;6.786;2023-02-21T07:01:54;30.23;;;14.37;;
10582;SDS011;33679;51.218;6.786;2023-02-21T07:04:26;36.47;;;16.47;;
10582;SDS011;33679;51.218;6.786;2023-02-21T07:06:59;34.13;;;15.60;;
10582;SDS011;33679;51.218;6.786;2023-02-21T07:09:31;35.77;;;16.43;;
10582;SDS011;33679;51.218;6.786;2023-02-21T07:12:04;35.07;;;16.30;;
10582;SDS011;33679;51.218;6.786;2023-02-21T07:14:39;31.10;;;14.80;;
10582;SDS011;33679;51.218;6.786;2023-02-21T07:17:12;33.90;;;15.53;;
10582;SDS011;33679;51.218;6.786;2023-02-21T07:19:45;32.60;;;14.17;;
10582;SDS011;33679;51.218;6.786;2023-02-21T07:22:18;35.03;;;15.00;;
10582;SDS011;33679;51.218;6.786;2023-02-21T07:24:55;43.40;;;16.87;;
10582;SDS011;33679;51.218;6.786;2023-02-21T07:27:28;39.93;;;16.70;;
10582;SDS011;33679;51.218;6.786;2023-02-21T07:30:00;29.60;;;14.53;;
10582;SDS011;33679;51.218;6.786;2023-02-21T07:32:34;31.13;;;15.13;;
10582;SDS011;33679;51.218;6.786;2023-02-21T07:35:07;40.90;;;17.60;;
10582;SDS011;33679;51.218;6.786;2023-02-21T07:37:39;41.63;;;19.80;;
10582;SDS011;33679;51.218;6.786;2023-02-21T07:40:12;35.53;;;14.70;;
10582;SDS011;33679;51.218;6.786;2023-02-21T07:42:44;30.63;;;13.50;;
10582;SDS011;33679;51.218;6.786;2023-02-21T07:45:17;30.37;;;13.83;;
10582;SDS011;33679;51.218;6.786;2023-02-21T07:47:51;28.83;;;12.80;;
10582;SDS011;33679;51.218;6.786;2023-02-21T07:50:26;43.63;;;16.33;;
10582;SDS011;33679;51.218;6.786;2023-02-21T07:52:58;42.30;;;20.03;;
10582;SDS011;33679;51.218;6.786;2023-02-21T07:55:31;40.90;;;18.20;;
10582;SDS011;33679;51.218;6.786;2023-02-21T07:58:04;34.30;;;15.70;;
10582;SDS011;33679;51.218;6.786;2023-02-21T08:00:36;32.23;;;13.67;;
10582;SDS011;33679;51.218;6.786;2023-02-21T08:03:12;29.63;;;12.07;;
10582;SDS011;33679;51.218;6.786;2023-02-21T08:05:48;30.73;;;13.37;;
10582;SDS011;33679;51.218;6.786;2023-02-21T08:08:20;30.03;;;13.37;;
10582;SDS011;33679;51.218;6.786;2023-02-21T08:10:54;24.53;;;11.40;;
10582;SDS011;33679;51.218;6.786;2023-02-21T08:13:27;25.60;;;11.57;;
10582;SDS011;33679;51.218;6.786;2023-02-21T08:15:59;27.37;;;11.43;;
10582;SDS011;33679;51.218;6.786;2023-02-21T08:18:33;25.50;;;12.67;;
10582;SDS011;33679;51.218;6.786;2023-02-21T08:21:07;32.93;;;13.47;;
10582;SDS011;33679;51.218;6.786;2023-02-21T08:23:41;25.17;;;13.00;;
10582;SDS011;33679;51.218;6.786;2023-02-21T08:26:13;28.93;;;11.33;;
10582;SDS011;33679;51.218;6.786;2023-02-21T08:28:46;26.27;;;12.50;;
10582;SDS011;33679;51.218;6.786;2023-02-21T08:31:18;27.33;;;12.03;;
10582;SDS011;33679;51.218;6.786;2023-02-21T08:33:52;22.77;;;11.47;;
10582;SDS011;33679;51.218;6.786;2023-02-21T08:36:29;23.80;;;11.07;;
10582;SDS011;33679;51.218;6.786;2023-02-21T08:39:02;21.27;;;10.00;;
10582;SDS011;33679;51.218;6.786;2023-02-21T08:41:36;23.93;;;10.43;;
10582;SDS011;33679;51.218;6.786;2023-02-21T08:44:09;32.40;;;14.57;;
10582;SDS011;33679;51.218;6.786;2023-02-21T08:46:42;22.40;;;10.50;;
10582;SDS011;33679;51.218;6.786;2023-02-21T08:49:17;30.23;;;11.40;;
10582;SDS011;33679;51.218;6.786;2023-02-21T08:51:49;19.13;;;9.17;;
10582;SDS011;33679;51.218;6.786;2023-02-21T08:54:22;17.57;;;8.90;;
10582;SDS011;33679;51.218;6.786;2023-02-21T08:56:54;20.63;;;9.97;;
10582;SDS011;33679;51.218;6.786;2023-02-21T08:59:28;23.63;;;11.30;;
10582;SDS011;33679;51.218;6.786;2023-02-21T09:02:02;22.73;;;10.93;;
10582;SDS011;33679;51.218;6.786;2023-02-21T09:04:47;21.30;;;10.57;;
10582;SDS011;33679;51.218;6.786;2023-02-21T09:07:24;20.40;;;10.77;;
10582;SDS011;33679;51.218;6.786;2023-02-21T09:10:06;30.23;;;14.37;;
10582;SDS011;33679;51.218;6.786;2023-02-21T09:12:41;25.33;;;12.43;;
10582;SDS011;33679;51.218;6.786;2023-02-21T09:15:18;26.23;;;11.87;;
10582;SDS011;33679;51.218;6.786;2023-02-21T09:17:52;20.17;;;9.80;;
10582;SDS011;33679;51.218;6.786;2023-02-21T09:20:28;23.17;;;11.47;;
10582;SDS011;33679;51.218;6.786;2023-02-21T09:23:01;21.17;;;10.40;;
10582;SDS011;33679;51.218;6.786;2023-02-21T09:25:33;24.53;;;10.27;;
10582;SDS011;33679;51.218;6.786;2023-02-21T09:28:06;22.80;;;9.97;;
10582;SDS011;33679;51.218;6.786;2023-02-21T09:30:39;22.80;;;11.43;;
10582;SDS011;33679;51.218;6.786;2023-02-21T09:33:13;26.83;;;12.77;;
10582;SDS011;33679;51.218;6.786;2023-02-21T09:35:53;24.80;;;11.53;;
10582;SDS011;33679;51.218;6.786;2023-02-21T09:38:25;24.43;;;11.33;;
10582;SDS011;33679;51.218;6.786;2023-02-21T09:40:59;25.40;;;11.77;;
10582;SDS011;33679;51.218;6.786;2023-02-21T09:43:34;21.40;;;10.20;;
10582;SDS011;33679;51.218;6.786;2023-02-21T09:46:15;20.57;;;9.03;;
10582;SDS011;33679;51.218;6.786;2023-02-21T09:48:54;23.93;;;11.83;;
10582;SDS011;33679;51.218;6.786;2023-02-21T09:51:29;20.63;;;10.67;;
10582;SDS011;33679;51.218;6.786;2023-02-21T09:54:03;21.20;;;10.03;;
10582;SDS011;33679;51.218;6.786;2023-02-21T09:56:38;19.17;;;9.60;;
10582;SDS011;33679;51.218;6.786;2023-02-21T09:59:15;27.10;;;10.40;;
10582;SDS011;33679;51.218;6.786;2023-02-21T10:01:51;16.73;;;8.00;;
10582;SDS011;33679;51.218;6.786;2023-02-21T10:04:35;42.93;;;18.47;;
10582;SDS011;33679;51.218;6.786;2023-02-21T10:07:25;24.30;;;12.10;;
10582;SDS011;33679;51.218;6.786;2023-02-21T10:10:08;21.03;;;10.13;;
10582;SDS011;33679;51.218;6.786;2023-02-21T10:12:56;28.53;;;11.23;;
10582;SDS011;33679;51.218;6.786;2023-02-21T10:15:51;21.27;;;9.83;;
10582;SDS011;33679;51.218;6.786;2023-02-21T10:19:32;15.93;;;8.93;;
10582;SDS011;33679;51.218;6.786;2023-02-21T10:22:12;22.17;;;9.90;;
10582;SDS011;33679;51.218;6.786;2023-02-21T10:24:58;18.33;;;9.53;;
10582;SDS011;33679;51.218;6.786;2023-02-21T10:27:32;20.47;;;9.80;;
10582;SDS011;33679;51.218;6.786;2023-02-21T10:30:06;20.50;;;9.90;;
10582;SDS011;33679;51.218;6.786;2023-02-21T10:32:41;20.53;;;10.27;;
10582;SDS011;33679;51.218;6.786;2023-02-21T10:35:17;17.73;;;9.80;;
10582;SDS011;33679;51.218;6.786;2023-02-21T10:37:50;25.97;;;12.33;;
10582;SDS011;33679;51.218;6.786;2023-02-21T10:40:31;19.87;;;9.93;;
10582;SDS011;33679;51.218;6.786;2023-02-21T10:43:24;18.73;;;9.60;;
10582;SDS011;33679;51.218;6.786;2023-02-21T10:46:19;19.63;;;10.13;;
10582;SDS011;33679;51.218;6.786;2023-02-21T10:49:17;19.53;;;9.57;;
10582;SDS011;33679;51.218;6.786;2023-02-21T10:52:03;20.77;;;9.60;;
10582;SDS011;33679;51.218;6.786;2023-02-21T10:54:41;22.53;;;11.77;;
10582;SDS011;33679;51.218;6.786;2023-02-21T10:57:38;18.57;;;9.53;;
10582;SDS011;33679;51.218;6.786;2023-02-21T11:00:23;19.50;;;9.33;;
10582;SDS011;33679;51.218;6.786;2023-02-21T11:05:54;20.80;;;9.70;;
10582;SDS011;33679;51.218;6.786;2023-02-21T11:08:34;21.37;;;10.17;;
10582;SDS011;33679;51.218;6.786;2023-02-21T11:11:11;18.27;;;9.03;;
10582;SDS011;33679;51.218;6.786;2023-02-21T11:13:48;22.63;;;9.00;;
10582;SDS011;33679;51.218;6.786;2023-02-21T11:16:39;35.40;;;16.83;;
10582;SDS011;33679;51.218;6.786;2023-02-21T11:19:13;22.53;;;11.00;;
10582;SDS011;33679;51.218;6.786;2023-02-21T11:21:49;23.57;;;10.97;;
10582;SDS011;33679;51.218;6.786;2023-02-21T11:24:59;24.70;;;10.20;;
10582;SDS011;33679;51.218;6.786;2023-02-21T11:27:44;22.93;;;11.60;;
10582;SDS011;33679;51.218;6.786;2023-02-21T11:30:36;24.50;;;12.30;;
10582;SDS011;33679;51.218;6.786;2023-02-21T11:33:24;23.10;;;10.33;;
10582;SDS011;33679;51.218;6.786;2023-02-21T11:36:11;23.30;;;11.70;;
10582;SDS011;33679;51.218;6.786;2023-02-21T11:39:24;22.50;;;11.23;;
10582;SDS011;33679;51.218;6.786;2023-02-21T11:42:25;42.07;;;20.30;;
10582;SDS011;33679;51.218;6.786;2023-02-21T11:48:41;24.77;;;11.10;;
10582;SDS011;33679;51.218;6.786;2023-02-21T11:51:31;27.20;;;11.40;;
10582;SDS011;33679;51.218;6.786;2023-02-21T11:54:30;26.03;;;11.43;;
10582;SDS011;33679;51.218;6.786;2023-02-21T11:57:05;26.23;;;11.40;;
10582;SDS011;33679;51.218;6.786;2023-02-21T11:59:58;24.90;;;9.87;;
10582;SDS011;33679;51.218;6.786;2023-02-21T12:03:09;25.23;;;11.20;;
10582;SDS011;33679;51.218;6.786;2023-02-21T12:06:08;20.80;;;10.90;;
10582;SDS011;33679;51.218;6.786;2023-02-21T12:08:50;20.63;;;10.40;;
10582;SDS011;33679;51.218;6.786;2023-02-21T12:11:49;19.90;;;10.40;;
10582;SDS011;33679;51.218;6.786;2023-02-21T12:14:32;19.67;;;9.47;;
10582;SDS011;33679;51.218;6.786;2023-02-21T12:17:15;22.90;;;10.00;;
10582;SDS011;33679;51.218;6.786;2023-02-21T12:23:00;18.80;;;10.13;;
10582;SDS011;33679;51.218;6.786;2023-02-21T12:25:51;20.63;;;10.20;;
10582;SDS011;33679;51.218;6.786;2023-02-21T12:28:36;16.60;;;9.17;;
10582;SDS011;33679;51.218;6.786;2023-02-21T12:31:26;18.37;;;8.83;;
10582;SDS011;33679;51.218;6.786;2023-02-21T12:34:14;34.87;;;18.00;;
10582;SDS011;33679;51.218;6.786;2023-02-21T12:37:04;24.60;;;11.90;;
10582;SDS011;33679;51.218;6.786;2023-02-21T12:39:53;17.77;;;8.87;;
10582;SDS011;33679;51.218;6.786;2023-02-21T12:42:41;22.97;;;9.90;;
10582;SDS011;33679;51.218;6.786;2023-02-21T12:45:42;15.73;;;9.47;;
10582;SDS011;33679;51.218;6.786;2023-02-21T12:49:09;19.67;;;8.80;;
10582;SDS011;33679;51.218;6.786;2023-02-21T12:52:07;18.30;;;8.50;;
10582;SDS011;33679;51.218;6.786;2023-02-21T12:55:41;18.63;;;8.97;;
10582;SDS011;33679;51.218;6.786;2023-02-21T12:59:01;15.83;;;7.73;;
10582;SDS011;33679;51.218;6.786;2023-02-21T13:02:11;18.87;;;8.53;;
10582;SDS011;33679;51.218;6.786;2023-02-21T13:04:59;20.47;;;9.80;;
10582;SDS011;33679;51.218;6.786;2023-02-21T13:07:51;21.60;;;9.23;;
10582;SDS011;33679;51.218;6.786;2023-02-21T13:11:06;21.90;;;9.00;;
10582;SDS011;33679;51.218;6.786;2023-02-21T13:14:07;20.80;;;9.40;;
10582;SDS011;33679;51.218;6.786;2023-02-21T13:16:45;22.83;;;10.77;;
10582;SDS011;33679;51.218;6.786;2023-02-21T13:20:09;26.30;;;12.77;;
10582;SDS011;33679;51.218;6.786;2023-02-21T13:26:48;21.83;;;11.03;;
10582;SDS011;33679;51.218;6.786;2023-02-21T13:30:02;23.30;;;11.00;;
10582;SDS011;33679;51.218;6.786;2023-02-21T13:36:39;25.70;;;12.77;;
10582;SDS011;33679;51.218;6.786;2023-02-21T13:39:17;23.43;;;12.67;;
10582;SDS011;33679;51.218;6.786;2023-02-21T13:42:08;27.77;;;12.87;;
10582;SDS011;33679;51.218;6.786;2023-02-21T13:44:50;25.60;;;12.50;;
10582;SDS011;33679;51.218;6.786;2023-02-21T13:47:26;21.00;;;10.13;;
10582;SDS011;33679;51.218;6.786;2023-02-21T13:50:45;20.43;;;9.87;;
10582;SDS011;33679;51.218;6.786;2023-02-21T13:53:27;18.60;;;9.50;;
10582;SDS011;33679;51.218;6.786;2023-02-21T13:56:15;19.97;;;9.70;;
10582;SDS011;33679;51.218;6.786;2023-02-21T13:59:32;38.70;;;17.23;;
10582;SDS011;33679;51.218;6.786;2023-02-21T14:02:22;24.20;;;12.83;;
10582;SDS011;33679;51.218;6.786;2023-02-21T14:05:07;18.67;;;10.00;;
10582;SDS011;33679;51.218;6.786;2023-02-21T14:07:43;16.87;;;9.80;;
10582;SDS011;33679;51.218;6.786;2023-02-21T14:10:35;20.97;;;10.07;;
10582;SDS011;33679;51.218;6.786;2023-02-21T14:13:20;21.87;;;10.10;;
10582;SDS011;33679;51.218;6.786;2023-02-21T14:15:58;21.73;;;10.07;;
10582;SDS011;33679;51.218;6.786;2023-02-21T14:18:41;20.50;;;10.10;;
10582;SDS011;33679;51.218;6.786;2023-02-21T14:21:21;22.83;;;10.00;;
10582;SDS011;33679;51.218;6.786;2023-02-21T14:23:59;26.30;;;12.50;;
10582;SDS011;33679;51.218;6.786;2023-02-21T14:26:39;23.07;;;11.20;;
10582;SDS011;33679;51.218;6.786;2023-02-21T14:29:28;18.37;;;9.87;;
10582;SDS011;33679;51.218;6.786;2023-02-21T14:32:22;16.90;;;8.43;;
10582;SDS011;33679;51.218;6.786;2023-02-21T14:35:12;23.23;;;10.00;;
10582;SDS011;33679;51.218;6.786;2023-02-21T14:37:57;19.90;;;8.13;;
10582;SDS011;33679;51.218;6.786;2023-02-21T14:40:39;24.50;;;12.40;;
10582;SDS011;33679;51.218;6.786;2023-02-21T14:43:39;15.00;;;8.80;;
10582;SDS011;33679;51.218;6.786;2023-02-21T14:46:36;19.67;;;9.30;;
10582;SDS011;33679;51.218;6.786;2023-02-21T14:52:36;20.67;;;9.10;;
10582;SDS011;33679;51.218;6.786;2023-02-21T14:58:34;17.03;;;8.83;;
10582;SDS011;33679;51.218;6.786;2023-02-21T15:01:37;19.07;;;10.13;;
10582;SDS011;33679;51.218;6.786;2023-02-21T15:04:17;41.10;;;21.33;;
10582;SDS011;33679;51.218;6.786;2023-02-21T15:06:59;19.37;;;11.83;;
10582;SDS011;33679;51.218;6.786;2023-02-21T15:09:39;17.73;;;8.57;;
10582;SDS011;33679;51.218;6.786;2023-02-21T15:12:13;18.43;;;9.10;;
10582;SDS011;33679;51.218;6.786;2023-02-21T15:14:51;18.70;;;8.43;;
10582;SDS011;33679;51.218;6.786;2023-02-21T15:20:29;18.20;;;8.40;;
10582;SDS011;33679;51.218;6.786;2023-02-21T15:23:10;21.03;;;11.23;;
10582;SDS011;33679;51.218;6.786;2023-02-21T15:26:14;43.70;;;17.40;;
10582;SDS011;33679;51.218;6.786;2023-02-21T15:29:04;20.60;;;10.80;;
10582;SDS011;33679;51.218;6.786;2023-02-21T15:38:28;21.73;;;10.43;;
10582;SDS011;33679;51.218;6.786;2023-02-21T15:41:06;26.87;;;11.10;;
10582;SDS011;33679;51.218;6.786;2023-02-21T15:43:44;20.90;;;11.30;;
10582;SDS011;33679;51.218;6.786;2023-02-21T15:46:24;26.80;;;11.80;;
10582;SDS011;33679;51.218;6.786;2023-02-21T15:49:04;22.90;;;11.40;;
10582;SDS011;33679;51.218;6.786;2023-02-21T15:51:55;23.33;;;11.50;;
10582;SDS011;33679;51.218;6.786;2023-02-21T15:54:39;25.50;;;11.77;;
10582;SDS011;33679;51.218;6.786;2023-02-21T15:57:20;21.93;;;11.47;;
10582;SDS011;33679;51.218;6.786;2023-02-21T16:09:48;26.43;;;12.40;;
10582;SDS011;33679;51.218;6.786;2023-02-21T16:16:46;26.40;;;14.20;;
10582;SDS011;33679;51.218;6.786;2023-02-21T16:22:20;26.40;;;13.70;;
10582;SDS011;33679;51.218;6.786;2023-02-21T16:24:12;25.27;;;11.50;;
10582;SDS011;33679;51.218;6.786;2023-02-21T16:27:00;20.50;;;10.37;;
10582;SDS011;33679;51.218;6.786;2023-02-21T16:29:34;24.23;;;11.37;;
10582;SDS011;33679;51.218;6.786;2023-02-21T16:32:08;23.17;;;10.17;;
10582;SDS011;33679;51.218;6.786;2023-02-21T16:34:49;23.67;;;11.17;;
10582;SDS011;33679;51.218;6.786;2023-02-21T16:37:32;27.07;;;11.13;;
10582;SDS011;33679;51.218;6.786;2023-02-21T16:40:10;27.37;;;13.90;;
10582;SDS011;33679;51.218;6.786;2023-02-21T16:42:46;23.50;;;11.03;;
10582;SDS011;33679;51.218;6.786;2023-02-21T16:45:22;20.73;;;10.67;;
10582;SDS011;33679;51.218;6.786;2023-02-21T16:47:58;24.33;;;12.17;;
10582;SDS011;33679;51.218;6.786;2023-02-21T16:50:34;25.70;;;12.87;;
10582;SDS011;33679;51.218;6.786;2023-02-21T16:53:09;27.77;;;13.23;;
10582;SDS011;33679;51.218;6.786;2023-02-21T16:55:43;24.70;;;11.63;;
10582;SDS011;33679;51.218;6.786;2023-02-21T16:58:27;32.63;;;14.73;;
10582;SDS011;33679;51.218;6.786;2023-02-21T17:01:07;25.93;;;13.73;;
10582;SDS011;33679;51.218;6.786;2023-02-21T17:03:43;27.60;;;13.27;;